Preview of NWS' New Version of Forecast
This preview is not operational and should not be used for support decisions.

Terminal Aerodrome Forecast (TAF)

Issued by National Weather Service (NWS)

                            
000
FTUS41 KGYX 241358 AAA
TAFRKD
TAF AMD
KRKD 241358Z 2414/2512 02012KT P6SM FEW050 SCT100
     FM250000 06003KT P6SM FEW100=